Weather observations for the past three days for
Lake City Municipal Airport
Imperial (Metric)
Date Time (edt) Wind (mph) Vis. (mi.) Weather Sky Cond. Temperature (ºF) Relative Humidity Wind Chill (°F) Heat Index (°F) Pressure Precipitation (in)
Air Dwpt 6 hour altimeter (in) sea level (mb) 1 hr 3 hr 6 hr
Max. Min.
05 23:55 Calm 10.00 Fair CLR 64.4 51.8 64% 30.04 0.0
05 23:35 SE 3 10.00 Fair CLR 64.4 51.8 64% 30.04 0.0
05 23:15 SE 3 10.00 Fair CLR 66.2 51.8 60% 30.04 0.0
05 22:55 SE 5 10.00 Fair CLR 66.2 51.8 60% 30.03 0.0
05 22:35 SE 5 10.00 Fair CLR 68 51.8 56% 30.02 0.0
05 22:15 SE 7 10.00 Fair CLR 69.8 53.6 57% 30.02 0.0
05 21:55 SE 9 10.00 Fair CLR 71.6 53.6 53% 30.01 0.0
05 21:35 SE 3 10.00 Fair CLR 71.6 55.4 57% 30 0.0
05 21:15 E 6 10.00 Fair CLR 71.6 57.2 61% 29.99 0.0
05 20:55 E 5 10.00 Fair CLR 73.4 57.2 57% 29.98 0.0
05 20:35 W 7 10.00 Fair CLR 75.2 57.2 54% 78 29.98 0.0
05 20:15 W 9 10.00 Fair CLR 77 57.2 51% 79 29.98 0.0
05 19:55 W 8 10.00 Fair CLR 78.8 57.2 48% 80 29.97 0.0
05 19:35 W 10 10.00 Fair CLR 78.8 57.2 48% 80 29.96 0.0
05 19:15 W 6 10.00 Fair CLR 82.4 53.6 37% 81 29.96 0.0
05 18:55 W 8 10.00 Partly Cloudy SCT080 82.4 51.8 35% 81 29.96 0.0
05 18:35 SW 6 10.00 Partly Cloudy SCT080 82.4 51.8 35% 81 29.95 0.0
05 18:15 SW 7 10.00 Fair CLR 82.4 51.8 35% 81 29.95 0.0
05 17:55 W 8 10.00 Fair CLR 84.2 51.8 33% 82 29.95 0.0
05 17:35 S 7 10.00 Fair CLR 84.2 51.8 33% 82 29.95 0.0
05 17:15 W 6 10.00 Fair CLR 84.2 51.8 33% 82 29.95 0.0
05 16:35 SW 3 10.00 Partly Cloudy SCT085 84.2 51.8 33% 82 29.97 0.0
05 16:15 Calm 10.00 Partly Cloudy SCT095 82.4 51.8 35% 81 29.97 0.0
05 15:55 Calm 10.00 Mostly Cloudy SCT065 BKN095 82.4 50 32% 81 29.97 0.0
05 15:35 Calm 10.00 Mostly Cloudy BKN065 82.4 53.6 37% 81 29.98 0.0
05 15:15 N 6 10.00 Mostly Cloudy BKN065 BKN075 82.4 53.6 37% 81 29.99 0.0
05 14:55 SE 3 10.00 Overcast BKN070 OVC090 80.6 53.6 39% 80 29.99 0.0
05 14:35 S 3 10.00 Mostly Cloudy BKN060 BKN090 80.6 53.6 39% 80 30 0.0
05 14:15 SE 5 10.00 Mostly Cloudy SCT060 BKN080 BKN090 80.6 53.6 39% 80 30.01 0.0
05 13:55 E 3 10.00 Mostly Cloudy BKN060 BKN070 BKN090 80.6 55.4 42% 81 30.02 0.0
05 13:35 Calm 10.00 Partly Cloudy SCT060 SCT070 SCT080 80.6 53.6 39% 80 30.02 0.0
05 13:15 Calm 10.00 Partly Cloudy SCT070 SCT080 78.8 53.6 42% 79 30.03 0.0
05 12:55 W 3 10.00 Partly Cloudy SCT050 SCT060 SCT090 78.8 55.4 45% 79 30.03 0.0
05 12:35 S 5 10.00 Mostly Cloudy SCT055 BKN075 77 53.6 44% 78 30.04 0.0
05 12:15 SE 3 10.00 Mostly Cloudy SCT065 BKN070 80.6 55.4 42% 81 30.04 0.0
05 11:35 SW 5 10.00 Mostly Cloudy SCT043 SCT050 BKN065 77 57.2 51% 79 30.05 0.0
05 11:15 Calm 10.00 Mostly Cloudy SCT041 BKN065 75.2 57.2 54% 78 30.05 0.0
05 10:55 SW 5 10.00 Fair CLR 77 59 54% 79 30.05 0.0
05 10:35 SE 5 10.00 Fair CLR 73.4 57.2 57% 30.05 0.0
05 10:15 S 5 10.00 Fair CLR 73.4 57.2 57% 30.05 0.0
05 09:55 S 6 10.00 Fair CLR 71.6 55.4 57% 30.04 0.0
05 09:35 SE 7 10.00 Fair CLR 71.6 57.2 61% 30.04 0.0
05 09:15 SE 6 10.00 Fair CLR 69.8 55.4 60% 30.04 0.0
05 08:55 SE 6 10.00 Fair CLR 68 55.4 64% 30.03 0.0
05 08:35 SE 6 10.00 Fair CLR 64.4 57.2 78% 30.03 0.0
05 08:15 SE 5 10.00 Fair CLR 62.6 57.2 83% 30.03 0.0
05 07:55 E 5 10.00 Fair CLR 59 55.4 88% 30.03 0.0
05 07:35 E 5 10.00 Fair CLR 57.2 55.4 94% 30.02 0.0
05 07:15 E 3 10.00 Fair CLR 53.6 53.6 100% 30.01 0.0
05 06:55 SE 3 10.00 Fair CLR 53.6 51.8 94% 30.01 0.0
05 06:35 Calm 10.00 Fair CLR 53.6 53.6 100% 30.01 0.0
05 06:15 Calm 10.00 Fair CLR 53.6 53.6 100% 30 0.0
05 05:55 Calm 10.00 Fair CLR 55.4 53.6 94% 30.01 0.0
05 05:35 SE 3 10.00 Fair CLR 53.6 53.6 100% 30 0.0
05 05:15 SE 3 10.00 Fair CLR 53.6 53.6 100% 30 0.0
05 04:55 Calm 10.00 Fair CLR 53.6 53.6 100% 30 0.0
05 04:35 Calm 10.00 Fair CLR 55.4 53.6 94% 29.99 0.0
05 04:15 SE 3 10.00 Fair CLR 53.6 53.6 100% 29.98 0.0
05 03:55 Calm 10.00 Fair CLR 55.4 53.6 94% 29.99 0.0
05 03:35 Calm 10.00 Fair CLR 55.4 53.6 94% 29.99 0.0
05 03:15 Calm 10.00 Fair CLR 55.4 53.6 94% 30 0.0
05 02:55 Calm 10.00 Fair CLR 55.4 53.6 94% 30 0.0
05 02:35 Calm 10.00 Fair CLR 59 53.6 82% 30.01 0.0
05 02:15 SE 3 10.00 Partly Cloudy SCT070 59 53.6 82% 30.01 0.0
05 01:55 SE 5 10.00 Partly Cloudy SCT070 59 53.6 82% 30.02 0.0
05 01:35 E 3 10.00 Partly Cloudy SCT070 60.8 53.6 77% 30.02 0.0
05 01:15 SE 5 10.00 Fair CLR 60.8 53.6 77% 30.03 0.0
05 00:55 E 3 10.00 Fair CLR 59 53.6 82% 30.03 0.0
05 00:35 SE 3 10.00 Fair CLR 60.8 53.6 77% 30.04 0.0
05 00:15 SE 3 10.00 Fair CLR 62.6 53.6 73% 30.04 0.0
04 23:55 SE 5 10.00 Fair CLR 60.8 53.6 77% 30.04 0.0
04 23:35 SE 5 10.00 Fair CLR 62.6 53.6 73% 30.05 0.0
04 23:15 SE 5 10.00 Fair CLR 62.6 53.6 73% 30.04 0.0
04 22:55 SE 7 10.00 Fair CLR 62.6 53.6 73% 30.04 0.0
04 22:35 SE 6 10.00 Fair CLR 64.4 53.6 68% 30.03 0.0
04 22:15 E 6 10.00 Fair CLR 64.4 53.6 68% 30.03 0.0
04 21:55 SE 7 10.00 Fair CLR 66.2 53.6 64% 30.02 0.0
04 21:35 SE 5 10.00 Fair CLR 66.2 51.8 60% 30.02 0.0
04 21:15 E 8 10.00 Fair CLR 69.8 51.8 53% 30 0.0
04 20:55 E 10 10.00 Fair CLR 69.8 51.8 53% 30 0.0
04 20:35 E 8 10.00 Fair CLR 71.6 50 47% 29.99 0.0
04 20:15 E 8 10.00 Fair CLR 71.6 50 47% 29.98 0.0
04 19:55 E 8 10.00 Fair CLR 73.4 48.2 41% 29.98 0.0
04 19:35 E 8 10.00 Fair CLR 77 46.4 34% 78 29.97 0.0
04 19:15 E 7 10.00 Fair CLR 78.8 42.8 28% 78 29.96 0.0
04 18:55 E 5 10.00 Fair CLR 80.6 39.2 23% 79 29.96 0.0
04 18:35 SE 6 10.00 Fair CLR 80.6 37.4 21% 79 29.96 0.0
04 18:15 E 6 10.00 Fair CLR 80.6 37.4 21% 79 29.96 0.0
04 17:55 SE 3 10.00 Fair CLR 80.6 39.2 23% 79 29.96 0.0
04 17:35 S 6 10.00 Fair CLR 80.6 41 24% 79 29.96 0.0
04 17:15 SE 5 10.00 Fair CLR 82.4 42.8 25% 80 29.96 0.0
04 16:55 SE 6 10.00 Fair CLR 80.6 39.2 23% 79 29.97 0.0
04 16:35 Calm 10.00 Fair CLR 80.6 41 24% 79 29.97 0.0
04 16:15 SE 10 10.00 Fair CLR 80.6 42.8 26% 79 29.98 0.0
04 15:55 S 6 10.00 Fair CLR 80.6 42.8 26% 79 29.99 0.0
04 15:35 SE 7 10.00 Fair CLR 80.6 42.8 26% 79 30 0.0
04 15:15 SE 10 10.00 Fair CLR 80.6 41 24% 79 30.01 0.0
04 14:55 Calm 10.00 Fair CLR 78.8 41 26% 78 30.01 0.0
04 14:35 SE 7 10.00 Fair CLR 78.8 42.8 28% 78 30.02 0.0
04 14:15 NE 5 10.00 Fair CLR 78.8 42.8 28% 78 30.03 0.0
04 13:55 S 5 10.00 Fair CLR 78.8 42.8 28% 78 30.03 0.0
04 13:35 Calm 10.00 Fair CLR 77 42.8 30% 78 30.04 0.0
04 13:15 Calm 10.00 Fair CLR 77 42.8 30% 78 30.05 0.0
04 12:55 N 5 10.00 Fair CLR 75.2 41 29% 77 30.06 0.0
04 12:35 N 6 10.00 Fair CLR 75.2 41 29% 77 30.07 0.0
04 12:15 E 5 10.00 Fair CLR 73.4 42.8 33% 30.07 0.0
04 11:55 NE 6 10.00 Fair CLR 73.4 42.8 33% 30.08 0.0
04 11:35 NE 6 10.00 Fair CLR 71.6 42.8 36% 30.08 0.0
04 11:15 Calm 10.00 Fair CLR 71.6 42.8 36% 30.08 0.0
04 10:55 E 5 10.00 Fair CLR 73.4 44.6 36% 30.08 0.0
04 10:35 NE 6 10.00 Fair CLR 71.6 42.8 36% 30.08 0.0
04 10:15 NE 6 10.00 Fair CLR 71.6 41 33% 30.09 0.0
04 09:55 E 5 10.00 Fair CLR 69.8 46.4 43% 30.09 0.0
04 09:35 NE 5 10.00 Fair CLR 69.8 48.2 46% 30.09 0.0
04 09:15 NE 3 10.00 Fair CLR 68 51.8 56% 30.09 0.0
04 08:55 Calm 10.00 Fair CLR 64.4 53.6 68% 30.08 0.0
04 08:35 Calm 10.00 Fair CLR 60.8 55.4 83% 30.09 0.0
04 07:55 Calm 10.00 Fair CLR 53.6 53.6 100% 30.08 0.0
04 07:35 Calm 10.00 Fair CLR 50 50 100% 30.07 0.0
04 07:15 Calm 10.00 Fair CLR 50 50 100% 30.07 0.0
04 06:55 Calm 10.00 Fair CLR 48.2 48.2 100% 30.06 0.0
04 06:35 Calm 10.00 Fair CLR 48.2 48.2 100% 30.06 0.0
04 06:15 Calm 10.00 Fair CLR 48.2 48.2 100% 30.06 0.0
04 05:55 Calm 10.00 Fair CLR 48.2 48.2 100% 30.06 0.0
04 05:35 Calm 10.00 Fair CLR 48.2 48.2 100% 30.06 0.0
04 05:15 Calm 10.00 Fair CLR 50 50 100% 30.06 0.0
04 04:55 Calm 10.00 Fair CLR 50 50 100% 30.06 0.0
04 04:35 Calm 10.00 Fair CLR 50 50 100% 30.06 0.0
04 04:15 Calm 10.00 Fair CLR 50 50 100% 30.06 0.0
04 03:55 Calm 10.00 Fair CLR 50 50 100% 30.06 0.0
04 03:35 Calm 10.00 Fair CLR 50 50 100% 30.06 0.0
04 03:15 Calm 10.00 Fair CLR 51.8 50 94% 30.07 0.0
04 02:55 Calm 10.00 Fair CLR 51.8 50 94% 30.07 0.0
04 02:35 Calm 10.00 Fair CLR 51.8 50 94% 30.07 0.0
04 02:15 Calm 10.00 Fair CLR 51.8 50 94% 30.08 0.0
04 01:55 Calm 10.00 Fair CLR 51.8 50 94% 30.09 0.0
04 01:35 Calm 10.00 Fair CLR 51.8 50 94% 30.09 0.0
04 01:15 Calm 10.00 Fair CLR 51.8 50 94% 30.1 0.0
04 00:55 Calm 10.00 Fair CLR 53.6 48.2 82% 30.1 0.0
04 00:35 Calm 10.00 Fair CLR 53.6 48.2 82% 30.1 0.0
04 00:15 Calm 10.00 Fair CLR 53.6 50 88% 30.1 0.0
03 23:55 SE 5 10.00 Fair CLR 53.6 48.2 82% 30.1 0.0
03 23:35 Calm 10.00 Fair CLR 53.6 50 88% 30.1 0.0
03 23:15 Calm 10.00 Fair CLR 55.4 50 82% 30.1 0.0
03 22:55 Calm 10.00 Fair CLR 55.4 50 82% 30.1 0.0
03 22:35 NE 3 10.00 Fair CLR 55.4 50 82% 30.1 0.0
03 22:15 Calm 10.00 Fair CLR 57.2 50 77% 30.09 0.0
03 21:55 Calm 10.00 Fair CLR 60.8 46.4 59% 30.08 0.0
03 21:35 Calm 10.00 Fair CLR 60.8 48.2 63% 30.07 0.0
03 21:15 Calm 10.00 Fair CLR 62.6 46.4 56% 30.06 0.0
03 20:55 NE 3 10.00 Fair CLR 62.6 46.4 56% 30.05 0.0
03 20:35 NE 3 10.00 Fair CLR 64.4 44.6 49% 30.05 0.0
03 20:15 N 3 10.00 Fair CLR 64.4 44.6 49% 30.04 0.0
03 19:55 N 3 10.00 Fair CLR 68 44.6 43% 30.03 0.0
03 19:35 N 5 10.00 Fair CLR 69.8 42.8 38% 30.03 0.0
03 19:15 N 7 10.00 Fair CLR 71.6 41 33% 30.04 0.0
03 18:55 N 6 10.00 Fair CLR 71.6 41 33% 30.04 0.0
03 18:35 N 8 10.00 Fair CLR 71.6 42.8 36% 30.03 0.0
03 18:15 N 9 10.00 Fair CLR 73.4 42.8 33% 30.03 0.0
03 17:55 N 5 10.00 Fair CLR 71.6 42.8 36% 30.03 0.0
03 17:35 NE 7 10.00 Fair CLR 73.4 42.8 33% 30.03 0.0
03 17:15 N 8 10.00 Fair CLR 75.2 44.6 34% 77 30.03 0.0
03 16:55 Calm 10.00 Fair CLR 73.4 42.8 33% 30.03 0.0
03 16:35 Calm 10.00 Fair CLR 73.4 42.8 33% 30.04 0.0
03 16:15 Calm 10.00 Fair CLR 73.4 42.8 33% 30.05 0.0
03 15:55 N 6 10.00 Fair CLR 73.4 44.6 36% 30.05 0.0
03 15:35 NW 6 10.00 Fair CLR 71.6 44.6 38% 30.06 0.0
03 15:15 NE 7 G 17 10.00 Partly Cloudy SCT055 73.4 44.6 36% 30.08 0.0
03 14:55 Calm 10.00 Fair CLR 71.6 46.4 41% 30.08 0.0
03 14:35 N 6 10.00 Fair CLR 71.6 42.8 36% 30.09 0.0
03 14:15 NE 8 10.00 Partly Cloudy SCT049 71.6 46.4 41% 30.1 0.0
03 13:55 NE 8 10.00 Partly Cloudy SCT045 69.8 44.6 40% 30.1 0.0
03 13:35 NE 8 10.00 Partly Cloudy SCT045 69.8 46.4 43% 30.11 0.0
03 13:15 N 9 10.00 Partly Cloudy SCT033 SCT043 69.8 48.2 46% 30.12 0.0
03 12:55 N 8 10.00 Partly Cloudy SCT029 SCT035 SCT043 66.2 51.8 60% 30.12 0.0
03 12:35 NE 8 10.00 Partly Cloudy SCT023 66.2 51.8 60% 30.14 0.0
03 12:15 N 3 10.00 Mostly Cloudy BKN021 64.4 53.6 68% 30.14 0.0
03 11:55 NE 7 10.00 Mostly Cloudy BKN019 64.4 53.6 68% 30.15 0.0
03 11:35 NE 6 10.00 Mostly Cloudy BKN017 64.4 53.6 68% 30.14 0.0
03 11:15 N 8 10.00 Overcast OVC017 64.4 55.4 73% 30.14 0.0
03 10:55 N 5 10.00 Overcast OVC015 59 57.2 94% 30.13 0.0
03 10:35 NE 6 10.00 Overcast OVC013 57.2 57.2 100% 30.13 0.0
03 10:15 NE 9 10.00 Overcast BKN007 OVC012 55.4 55.4 100% 30.13 0.0
03 09:55 N 8 10.00 Overcast OVC005 55.4 55.4 100% 30.12 0.0
03 09:35 NE 7 10.00 Overcast OVC003 55.4 55.4 100% 30.12 0.0
03 09:15 NE 5 1.25 Fog/Mist OVC001 53.6 53.6 100% 30.11 0.0
03 08:55 NE 3 0.25 Fog OVC001 53.6 53.6 100% 30.12 0.0
03 08:35 NE 3 0.15 Fog OVC001 53.6 53.6 100% 30.11 0.0
03 08:15 Calm 0.15 Fog OVC001 51.8 51.8 100% 30.1 0.0
03 07:55 Calm 0.15 Fog OVC001 51.8 51.8 100% 30.1 0.0
03 07:35 Calm 0.15 Fog OVC001 51.8 51.8 100% 30.09 0.0
03 07:15 Calm 0.15 Fog OVC001 51.8 51.8 100% 30.08 0.0
03 06:35 Calm 0.50 Fog OVC001 50 50 100% 30.06 0.0
03 06:15 N 3 0.50 Fog OVC001 50 50 100% 30.05 0.0
03 05:55 Calm 0.25 Fog OVC001 51.8 51.8 100% 30.05 0.0
03 05:35 Calm 1.50 Fog/Mist OVC001 50 50 100% 30.05 0.0
03 05:15 N 3 0.50 Fog OVC001 51.8 51.8 100% 30.04 0.0
03 04:55 N 5 1.75 Fog/Mist BKN001 51.8 51.8 100% 30.04 0.0
03 04:35 N 3 10.00 Fair CLR 51.8 51.8 100% 30.04 0.0
03 04:15 N 3 10.00 Fair CLR 53.6 53.6 100% 30.05 0.0
03 03:55 Calm 7.00 Fair CLR 53.6 53.6 100% 30.05 0.0
03 03:35 N 5 10.00 Partly Cloudy SCT002 53.6 53.6 100% 30.04 0.0
03 03:15 N 3 1.00 Fog/Mist OVC002 51.8 51.8 100% 30.04 0.0
03 02:55 Calm 0.50 Fog OVC002 53.6 53.6 100% 30.04 0.0
03 02:35 Calm 0.50 Fog OVC002 53.6 53.6 100% 30.03 0.0
03 02:15 Calm 0.25 Fog OVC002 51.8 51.8 100% 30.03 0.0
03 01:55 Calm 1.00 Fog/Mist OVC002 53.6 53.6 100% 30.03 0.0
03 01:35 Calm 0.25 Fog OVC002 53.6 53.6 100% 30.02 0.0
03 01:15 Calm 0.50 Fog OVC002 53.6 53.6 100% 30.01 0.0
03 00:55 Calm 1.00 Fog/Mist BKN002 53.6 53.6 100% 30.01 0.0
03 00:35 Calm 0.50 Fog BKN002 53.6 53.6 100% 30.01 0.0
Date Time (edt) Wind (mph) Vis. (mi.) Weather Sky Cond. Air Dwpt Max. Min. Relative Humidity Wind Chill (°F) Heat Index (°F) altimeter (in) sea level (mb) 1 hr 3 hr 6 hr
6 hour
Temperature (ºF) Pressure Precipitation (in)